sensor_id;sensor_type;location;lat;lon;timestamp;pressure;altitude;pressure_sealevel;temperature;humidity
12624;BME280;6377;42.836;23.998;2023-11-19T00:02:07;95567.00;;;4.01;100.00
12624;BME280;6377;42.836;23.998;2023-11-19T00:04:38;95585.28;;;4.11;100.00
12624;BME280;6377;42.836;23.998;2023-11-19T00:07:06;95593.66;;;4.14;100.00
12624;BME280;6377;42.836;23.998;2023-11-19T00:09:36;95586.97;;;4.02;100.00
12624;BME280;6377;42.836;23.998;2023-11-19T00:12:08;95570.00;;;3.96;100.00
12624;BME280;6377;42.836;23.998;2023-11-19T00:14:36;95580.91;;;3.82;100.00
12624;BME280;6377;42.836;23.998;2023-11-19T00:17:58;95580.63;;;3.85;100.00
12624;BME280;6377;42.836;23.998;2023-11-19T00:24:04;95589.44;;;4.04;98.62
12624;BME280;6377;42.836;23.998;2023-11-19T00:29:49;95564.25;;;3.83;99.25
12624;BME280;6377;42.836;23.998;2023-11-19T00:32:20;95605.91;;;4.23;97.33
12624;BME280;6377;42.836;23.998;2023-11-19T00:34:47;95549.91;;;3.97;97.49
12624;BME280;6377;42.836;23.998;2023-11-19T00:37:15;95548.78;;;4.00;96.55
12624;BME280;6377;42.836;23.998;2023-11-19T00:39:46;95531.91;;;3.84;96.31
12624;BME280;6377;42.836;23.998;2023-11-19T00:42:15;95538.09;;;3.83;93.24
12624;BME280;6377;42.836;23.998;2023-11-19T00:44:42;95545.66;;;3.96;94.81
12624;BME280;6377;42.836;23.998;2023-11-19T00:47:12;95586.91;;;4.21;95.02
12624;BME280;6377;42.836;23.998;2023-11-19T00:49:39;95590.09;;;4.06;94.86
12624;BME280;6377;42.836;23.998;2023-11-19T00:52:07;95588.56;;;4.22;93.19
12624;BME280;6377;42.836;23.998;2023-11-19T00:54:48;95562.53;;;4.11;94.13
12624;BME280;6377;42.836;23.998;2023-11-19T00:57:15;95533.97;;;3.81;92.67
12624;BME280;6377;42.836;23.998;2023-11-19T00:59:43;95545.94;;;3.93;92.63
12624;BME280;6377;42.836;23.998;2023-11-19T01:02:14;95549.06;;;3.96;93.60
12624;BME280;6377;42.836;23.998;2023-11-19T01:04:42;95544.66;;;4.07;92.94
12624;BME280;6377;42.836;23.998;2023-11-19T01:07:10;95552.78;;;4.13;92.73
12624;BME280;6377;42.836;23.998;2023-11-19T01:09:38;95533.91;;;4.10;91.41
12624;BME280;6377;42.836;23.998;2023-11-19T01:12:07;95406.78;;;3.24;88.58
12624;BME280;6377;42.836;23.998;2023-11-19T01:14:35;95529.69;;;3.89;90.31
12624;BME280;6377;42.836;23.998;2023-11-19T01:17:03;95489.91;;;3.86;90.63
12624;BME280;6377;42.836;23.998;2023-11-19T01:19:32;95585.22;;;4.30;89.96
12624;BME280;6377;42.836;23.998;2023-11-19T01:22:02;95580.53;;;4.33;91.38
12624;BME280;6377;42.836;23.998;2023-11-19T01:24:30;95550.72;;;4.07;91.10
12624;BME280;6377;42.836;23.998;2023-11-19T01:26:57;95601.47;;;4.43;92.64
12624;BME280;6377;42.836;23.998;2023-11-19T01:29:25;95562.63;;;4.29;91.83
12624;BME280;6377;42.836;23.998;2023-11-19T01:31:52;95590.94;;;4.52;90.22
12624;BME280;6377;42.836;23.998;2023-11-19T01:34:20;95601.97;;;4.46;91.98
12624;BME280;6377;42.836;23.998;2023-11-19T01:36:49;95583.91;;;4.53;89.79
12624;BME280;6377;42.836;23.998;2023-11-19T01:39:16;95568.94;;;4.36;89.46
12624;BME280;6377;42.836;23.998;2023-11-19T01:41:45;95585.19;;;4.49;89.26
12624;BME280;6377;42.836;23.998;2023-11-19T01:44:12;95583.25;;;4.51;90.15
12624;BME280;6377;42.836;23.998;2023-11-19T01:46:40;95579.06;;;4.58;89.02
12624;BME280;6377;42.836;23.998;2023-11-19T01:49:11;95575.13;;;4.44;90.92
12624;BME280;6377;42.836;23.998;2023-11-19T01:51:40;95576.66;;;4.37;89.22
12624;BME280;6377;42.836;23.998;2023-11-19T01:57:09;95568.31;;;4.24;89.53
12624;BME280;6377;42.836;23.998;2023-11-19T01:59:36;95586.03;;;4.40;90.02
12624;BME280;6377;42.836;23.998;2023-11-19T02:02:07;95546.28;;;4.17;89.15
12624;BME280;6377;42.836;23.998;2023-11-19T02:04:35;95563.06;;;4.24;90.44
12624;BME280;6377;42.836;23.998;2023-11-19T02:07:04;95535.97;;;4.06;92.04
12624;BME280;6377;42.836;23.998;2023-11-19T02:09:32;95581.19;;;4.45;89.32
12624;BME280;6377;42.836;23.998;2023-11-19T02:12:00;95588.31;;;4.52;89.89
12624;BME280;6377;42.836;23.998;2023-11-19T02:14:30;95589.81;;;4.55;87.62
12624;BME280;6377;42.836;23.998;2023-11-19T02:16:57;95427.50;;;3.54;90.04
12624;BME280;6377;42.836;23.998;2023-11-19T02:19:24;95600.91;;;4.76;88.65
12624;BME280;6377;42.836;23.998;2023-11-19T02:21:52;95511.53;;;4.25;88.98
12624;BME280;6377;42.836;23.998;2023-11-19T02:24:22;95600.16;;;4.66;87.60
12624;BME280;6377;42.836;23.998;2023-11-19T02:26:57;95560.81;;;4.39;87.97
12624;BME280;6377;42.836;23.998;2023-11-19T02:29:28;95551.75;;;4.33;89.45
12624;BME280;6377;42.836;23.998;2023-11-19T02:31:56;95558.03;;;4.40;90.49
12624;BME280;6377;42.836;23.998;2023-11-19T02:34:23;95544.00;;;4.41;89.84
12624;BME280;6377;42.836;23.998;2023-11-19T02:36:51;95550.72;;;4.44;88.62
12624;BME280;6377;42.836;23.998;2023-11-19T02:39:19;95545.47;;;4.53;89.52
12624;BME280;6377;42.836;23.998;2023-11-19T02:41:47;95565.88;;;4.50;87.25
12624;BME280;6377;42.836;23.998;2023-11-19T02:44:16;95599.56;;;4.72;88.15
12624;BME280;6377;42.836;23.998;2023-11-19T02:46:45;95559.00;;;4.49;91.03
12624;BME280;6377;42.836;23.998;2023-11-19T02:49:14;95595.28;;;4.71;90.92
12624;BME280;6377;42.836;23.998;2023-11-19T02:51:42;95587.44;;;4.71;88.61
12624;BME280;6377;42.836;23.998;2023-11-19T02:54:09;95560.06;;;4.56;86.64
12624;BME280;6377;42.836;23.998;2023-11-19T02:56:36;95575.88;;;4.64;85.19
12624;BME280;6377;42.836;23.998;2023-11-19T02:59:05;95565.53;;;4.63;86.21
12624;BME280;6377;42.836;23.998;2023-11-19T03:01:40;95596.25;;;4.97;86.07
12624;BME280;6377;42.836;23.998;2023-11-19T03:04:11;95556.53;;;4.75;87.92
12624;BME280;6377;42.836;23.998;2023-11-19T03:06:42;95558.03;;;4.77;88.53
12624;BME280;6377;42.836;23.998;2023-11-19T03:09:10;95566.22;;;4.92;85.71
12624;BME280;6377;42.836;23.998;2023-11-19T03:11:37;95596.94;;;4.99;85.20
12624;BME280;6377;42.836;23.998;2023-11-19T03:14:05;95529.91;;;4.52;86.60
12624;BME280;6377;42.836;23.998;2023-11-19T03:16:33;95604.78;;;4.99;88.39
12624;BME280;6377;42.836;23.998;2023-11-19T03:19:00;95559.44;;;4.72;87.68
12624;BME280;6377;42.836;23.998;2023-11-19T03:21:30;95566.47;;;4.71;86.90
12624;BME280;6377;42.836;23.998;2023-11-19T03:23:58;95609.16;;;5.08;87.81
12624;BME280;6377;42.836;23.998;2023-11-19T03:26:26;95581.16;;;4.82;83.03
12624;BME280;6377;42.836;23.998;2023-11-19T03:28:54;95590.09;;;4.89;85.53
12624;BME280;6377;42.836;23.998;2023-11-19T03:31:22;95552.94;;;4.48;84.79
12624;BME280;6377;42.836;23.998;2023-11-19T03:33:53;95575.50;;;4.49;85.63
12624;BME280;6377;42.836;23.998;2023-11-19T03:36:21;95533.47;;;4.14;87.17
12624;BME280;6377;42.836;23.998;2023-11-19T03:38:51;95574.25;;;4.17;86.53
12624;BME280;6377;42.836;23.998;2023-11-19T03:41:48;95576.06;;;4.07;88.36
12624;BME280;6377;42.836;23.998;2023-11-19T03:44:15;95569.16;;;4.15;88.10
12624;BME280;6377;42.836;23.998;2023-11-19T03:46:43;95587.59;;;4.23;89.31
12624;BME280;6377;42.836;23.998;2023-11-19T03:49:15;95598.47;;;4.28;86.85
12624;BME280;6377;42.836;23.998;2023-11-19T03:51:57;95613.19;;;4.39;85.82
12624;BME280;6377;42.836;23.998;2023-11-19T04:04:08;95645.59;;;4.28;88.54
12624;BME280;6377;42.836;23.998;2023-11-19T04:06:39;95599.75;;;4.05;87.21
12624;BME280;6377;42.836;23.998;2023-11-19T04:09:10;95633.75;;;4.24;86.35
12624;BME280;6377;42.836;23.998;2023-11-19T04:11:50;95580.91;;;3.92;85.02
12624;BME280;6377;42.836;23.998;2023-11-19T04:14:17;95603.19;;;4.06;85.27
12624;BME280;6377;42.836;23.998;2023-11-19T04:16:46;95616.13;;;4.17;84.51
12624;BME280;6377;42.836;23.998;2023-11-19T04:19:18;95601.28;;;4.08;84.86
12624;BME280;6377;42.836;23.998;2023-11-19T04:21:46;95638.25;;;4.32;84.68
12624;BME280;6377;42.836;23.998;2023-11-19T04:24:13;95650.13;;;4.36;87.33
12624;BME280;6377;42.836;23.998;2023-11-19T04:26:41;95645.00;;;4.44;82.61
12624;BME280;6377;42.836;23.998;2023-11-19T04:29:15;95648.34;;;4.36;82.30
12624;BME280;6377;42.836;23.998;2023-11-19T04:31:43;95662.94;;;4.39;81.70
12624;BME280;6377;42.836;23.998;2023-11-19T04:34:11;95646.81;;;4.34;84.72
12624;BME280;6377;42.836;23.998;2023-11-19T04:36:40;95660.72;;;4.44;80.55
12624;BME280;6377;42.836;23.998;2023-11-19T04:39:08;95669.28;;;4.46;82.95
12624;BME280;6377;42.836;23.998;2023-11-19T04:41:45;95623.00;;;4.27;81.20
12624;BME280;6377;42.836;23.998;2023-11-19T04:44:14;95465.38;;;3.21;81.49
12624;BME280;6377;42.836;23.998;2023-11-19T04:46:55;95565.38;;;3.81;82.31
12624;BME280;6377;42.836;23.998;2023-11-19T04:49:22;95638.16;;;4.24;83.75
12624;BME280;6377;42.836;23.998;2023-11-19T04:51:51;95607.19;;;4.00;80.78
12624;BME280;6377;42.836;23.998;2023-11-19T04:54:20;95635.53;;;4.14;80.30
12624;BME280;6377;42.836;23.998;2023-11-19T04:57:01;95618.50;;;4.10;80.68
12624;BME280;6377;42.836;23.998;2023-11-19T04:59:29;95546.63;;;3.76;81.50
12624;BME280;6377;42.836;23.998;2023-11-19T05:01:56;95599.44;;;4.18;84.24
12624;BME280;6377;42.836;23.998;2023-11-19T05:04:23;95617.66;;;4.19;80.83
12624;BME280;6377;42.836;23.998;2023-11-19T05:06:52;95592.44;;;4.09;81.61
12624;BME280;6377;42.836;23.998;2023-11-19T05:09:22;95620.00;;;4.13;80.61
12624;BME280;6377;42.836;23.998;2023-11-19T05:11:50;95619.16;;;4.12;80.19
12624;BME280;6377;42.836;23.998;2023-11-19T05:14:17;95630.97;;;4.26;79.67
12624;BME280;6377;42.836;23.998;2023-11-19T05:16:46;95630.84;;;4.37;80.80
12624;BME280;6377;42.836;23.998;2023-11-19T05:19:13;95626.28;;;4.29;80.43
12624;BME280;6377;42.836;23.998;2023-11-19T05:21:42;95644.44;;;4.40;79.22
12624;BME280;6377;42.836;23.998;2023-11-19T05:24:11;95674.78;;;4.43;79.57
12624;BME280;6377;42.836;23.998;2023-11-19T05:26:38;95662.66;;;4.32;79.65
12624;BME280;6377;42.836;23.998;2023-11-19T05:29:08;95679.75;;;4.46;80.28
12624;BME280;6377;42.836;23.998;2023-11-19T05:31:35;95669.00;;;4.39;80.20
12624;BME280;6377;42.836;23.998;2023-11-19T05:34:02;95663.19;;;4.45;79.74
12624;BME280;6377;42.836;23.998;2023-11-19T05:36:30;95669.28;;;4.46;83.23
12624;BME280;6377;42.836;23.998;2023-11-19T05:38:57;95670.22;;;4.55;85.35
12624;BME280;6377;42.836;23.998;2023-11-19T05:41:25;95691.50;;;4.79;81.46
12624;BME280;6377;42.836;23.998;2023-11-19T05:43:52;95693.16;;;4.80;82.53
12624;BME280;6377;42.836;23.998;2023-11-19T05:46:19;95672.22;;;4.70;82.35
12624;BME280;6377;42.836;23.998;2023-11-19T05:48:47;95686.81;;;4.82;82.71
12624;BME280;6377;42.836;23.998;2023-11-19T05:51:14;95692.38;;;5.06;82.21
12624;BME280;6377;42.836;23.998;2023-11-19T05:53:41;95707.38;;;5.14;81.75
12624;BME280;6377;42.836;23.998;2023-11-19T05:56:09;95714.53;;;5.22;81.54
12624;BME280;6377;42.836;23.998;2023-11-19T05:58:38;95631.44;;;4.58;77.59
12624;BME280;6377;42.836;23.998;2023-11-19T06:01:06;95615.06;;;4.46;77.56
12624;BME280;6377;42.836;23.998;2023-11-19T06:03:34;95703.69;;;5.07;79.40
12624;BME280;6377;42.836;23.998;2023-11-19T06:06:02;95719.13;;;5.10;78.89
12624;BME280;6377;42.836;23.998;2023-11-19T06:08:29;95695.19;;;4.95;77.29
12624;BME280;6377;42.836;23.998;2023-11-19T06:10:57;95728.88;;;4.81;75.21
12624;BME280;6377;42.836;23.998;2023-11-19T06:13:26;95700.09;;;4.62;78.58
12624;BME280;6377;42.836;23.998;2023-11-19T06:15:58;95720.19;;;4.71;78.04
12624;BME280;6377;42.836;23.998;2023-11-19T06:18:25;95676.88;;;4.20;78.55
12624;BME280;6377;42.836;23.998;2023-11-19T06:20:53;95734.13;;;4.71;79.07
12624;BME280;6377;42.836;23.998;2023-11-19T06:23:20;95598.00;;;3.86;78.72
12624;BME280;6377;42.836;23.998;2023-11-19T06:25:47;95688.56;;;4.45;80.55
12624;BME280;6377;42.836;23.998;2023-11-19T06:28:14;95688.66;;;4.63;78.63
12624;BME280;6377;42.836;23.998;2023-11-19T06:30:41;95715.72;;;4.90;80.61
12624;BME280;6377;42.836;23.998;2023-11-19T06:33:12;95693.16;;;4.80;77.75
12624;BME280;6377;42.836;23.998;2023-11-19T06:35:39;95713.94;;;4.91;78.85
12624;BME280;6377;42.836;23.998;2023-11-19T06:38:07;95681.31;;;4.76;81.41
12624;BME280;6377;42.836;23.998;2023-11-19T06:43:12;95696.22;;;5.12;80.84
12624;BME280;6377;42.836;23.998;2023-11-19T06:45:39;95605.75;;;4.34;75.41
12624;BME280;6377;42.836;23.998;2023-11-19T06:48:07;95701.47;;;5.84;100.00
12624;BME280;6377;42.836;23.998;2023-11-19T06:50:35;95703.22;;;6.11;97.98
12624;BME280;6377;42.836;23.998;2023-11-19T06:53:03;95718.84;;;6.30;95.03
12624;BME280;6377;42.836;23.998;2023-11-19T06:55:32;95670.28;;;5.99;85.86
12624;BME280;6377;42.836;23.998;2023-11-19T06:58:00;95737.53;;;6.45;88.22
12624;BME280;6377;42.836;23.998;2023-11-19T07:00:28;95727.91;;;6.53;84.43
12624;BME280;6377;42.836;23.998;2023-11-19T07:02:55;95692.00;;;6.18;79.59
12624;BME280;6377;42.836;23.998;2023-11-19T07:05:22;95740.22;;;6.35;78.05
12624;BME280;6377;42.836;23.998;2023-11-19T07:07:51;95743.22;;;6.22;74.82
12624;BME280;6377;42.836;23.998;2023-11-19T07:10:19;95744.81;;;6.33;78.09
12624;BME280;6377;42.836;23.998;2023-11-19T07:12:46;95734.72;;;6.46;77.36
12624;BME280;6377;42.836;23.998;2023-11-19T07:15:16;95754.50;;;6.33;73.13
12624;BME280;6377;42.836;23.998;2023-11-19T07:17:43;95755.31;;;6.33;73.72
12624;BME280;6377;42.836;23.998;2023-11-19T07:20:11;95759.44;;;6.36;73.18
12624;BME280;6377;42.836;23.998;2023-11-19T07:22:43;95763.19;;;6.51;73.12
12624;BME280;6377;42.836;23.998;2023-11-19T07:25:13;95758.38;;;6.46;72.18
12624;BME280;6377;42.836;23.998;2023-11-19T07:27:40;95762.91;;;6.36;70.44
12624;BME280;6377;42.836;23.998;2023-11-19T07:30:08;95703.31;;;6.01;72.08
12624;BME280;6377;42.836;23.998;2023-11-19T07:32:36;95768.44;;;6.51;70.38
12624;BME280;6377;42.836;23.998;2023-11-19T07:35:05;95758.66;;;6.61;70.46
12624;BME280;6377;42.836;23.998;2023-11-19T07:37:33;95708.28;;;6.40;69.65
12624;BME280;6377;42.836;23.998;2023-11-19T07:40:00;95596.06;;;5.53;69.65
12624;BME280;6377;42.836;23.998;2023-11-19T07:42:28;95720.72;;;6.38;68.17
12624;BME280;6377;42.836;23.998;2023-11-19T07:44:56;95768.50;;;6.76;67.17
12624;BME280;6377;42.836;23.998;2023-11-19T07:47:24;95774.72;;;6.75;66.25
12624;BME280;6377;42.836;23.998;2023-11-19T07:49:51;95733.09;;;6.45;63.06
12624;BME280;6377;42.836;23.998;2023-11-19T07:52:18;95766.34;;;6.72;66.15
12624;BME280;6377;42.836;23.998;2023-11-19T07:54:45;95772.84;;;6.86;66.51
12624;BME280;6377;42.836;23.998;2023-11-19T07:57:12;95770.03;;;6.87;64.93
12624;BME280;6377;42.836;23.998;2023-11-19T07:59:41;95770.75;;;6.71;66.17
12624;BME280;6377;42.836;23.998;2023-11-19T08:02:08;95765.13;;;6.66;66.24
12624;BME280;6377;42.836;23.998;2023-11-19T08:04:35;95705.72;;;6.30;64.73
12624;BME280;6377;42.836;23.998;2023-11-19T08:07:05;95710.59;;;6.25;65.00
12624;BME280;6377;42.836;23.998;2023-11-19T08:09:32;95740.69;;;6.48;65.57
12624;BME280;6377;42.836;23.998;2023-11-19T08:11:59;95753.41;;;6.61;66.16
12624;BME280;6377;42.836;23.998;2023-11-19T08:14:26;95755.44;;;6.67;65.27
12624;BME280;6377;42.836;23.998;2023-11-19T08:16:55;95647.28;;;6.10;65.22
12624;BME280;6377;42.836;23.998;2023-11-19T08:19:22;95782.53;;;7.11;64.10
12624;BME280;6377;42.836;23.998;2023-11-19T08:21:49;95781.78;;;7.18;63.79
12624;BME280;6377;42.836;23.998;2023-11-19T08:24:16;95771.53;;;7.07;61.26
12624;BME280;6377;42.836;23.998;2023-11-19T08:26:43;95798.75;;;7.24;62.51
12624;BME280;6377;42.836;23.998;2023-11-19T08:29:11;95778.84;;;7.21;63.78
12624;BME280;6377;42.836;23.998;2023-11-19T08:31:39;95776.72;;;7.25;61.35
12624;BME280;6377;42.836;23.998;2023-11-19T08:34:07;95774.38;;;6.96;61.25
12624;BME280;6377;42.836;23.998;2023-11-19T08:36:35;95714.78;;;6.53;61.96
12624;BME280;6377;42.836;23.998;2023-11-19T08:39:03;95713.41;;;6.93;62.55
12624;BME280;6377;42.836;23.998;2023-11-19T08:41:30;95738.22;;;7.16;60.55
12624;BME280;6377;42.836;23.998;2023-11-19T08:43:58;95696.06;;;6.82;59.42
12624;BME280;6377;42.836;23.998;2023-11-19T08:46:25;95778.81;;;6.96;60.19
12624;BME280;6377;42.836;23.998;2023-11-19T08:48:52;95741.28;;;6.60;59.98
12624;BME280;6377;42.836;23.998;2023-11-19T08:51:23;95778.34;;;6.57;60.83
12624;BME280;6377;42.836;23.998;2023-11-19T08:53:52;95784.22;;;6.51;62.62
12624;BME280;6377;42.836;23.998;2023-11-19T08:56:19;95765.53;;;6.36;62.41
12624;BME280;6377;42.836;23.998;2023-11-19T08:58:46;95732.50;;;6.16;63.56
12624;BME280;6377;42.836;23.998;2023-11-19T09:01:13;95761.84;;;6.47;62.69
12624;BME280;6377;42.836;23.998;2023-11-19T09:03:40;95640.81;;;5.87;61.54
12624;BME280;6377;42.836;23.998;2023-11-19T09:06:07;95623.94;;;5.72;62.59
12624;BME280;6377;42.836;23.998;2023-11-19T09:08:36;95670.13;;;5.83;62.20
12624;BME280;6377;42.836;23.998;2023-11-19T09:11:07;95590.72;;;5.45;61.25
12624;BME280;6377;42.836;23.998;2023-11-19T09:13:35;95711.44;;;6.69;59.94
12624;BME280;6377;42.836;23.998;2023-11-19T09:16:02;95742.69;;;7.23;61.75
12624;BME280;6377;42.836;23.998;2023-11-19T09:18:29;95737.97;;;7.35;58.83
12624;BME280;6377;42.836;23.998;2023-11-19T09:20:57;95737.88;;;7.53;59.48
12624;BME280;6377;42.836;23.998;2023-11-19T09:23:25;95716.22;;;7.67;57.96
12624;BME280;6377;42.836;23.998;2023-11-19T09:25:55;95716.19;;;8.09;56.25
12624;BME280;6377;42.836;23.998;2023-11-19T09:28:22;95561.03;;;7.25;57.29
12624;BME280;6377;42.836;23.998;2023-11-19T09:30:49;95584.63;;;7.99;54.53
12624;BME280;6377;42.836;23.998;2023-11-19T09:33:16;95753.41;;;9.35;52.11
12624;BME280;6377;42.836;23.998;2023-11-19T09:35:44;95621.22;;;8.34;51.73
12624;BME280;6377;42.836;23.998;2023-11-19T09:38:11;95741.63;;;9.07;52.01
12624;BME280;6377;42.836;23.998;2023-11-19T09:40:38;95598.13;;;7.96;52.10
12624;BME280;6377;42.836;23.998;2023-11-19T09:43:07;95728.75;;;9.04;53.09
12624;BME280;6377;42.836;23.998;2023-11-19T09:45:45;95602.25;;;8.23;52.58
12624;BME280;6377;42.836;23.998;2023-11-19T09:48:16;95712.94;;;8.87;53.92
12624;BME280;6377;42.836;23.998;2023-11-19T09:50:46;95720.03;;;8.79;52.14
12624;BME280;6377;42.836;23.998;2023-11-19T09:53:13;95573.44;;;8.05;52.85
12624;BME280;6377;42.836;23.998;2023-11-19T09:55:44;95544.13;;;7.84;52.34
12624;BME280;6377;42.836;23.998;2023-11-19T09:58:14;95543.50;;;7.82;51.76
12624;BME280;6377;42.836;23.998;2023-11-19T10:00:41;95528.69;;;7.65;52.31
12624;BME280;6377;42.836;23.998;2023-11-19T10:03:10;95619.00;;;7.81;53.32
12624;BME280;6377;42.836;23.998;2023-11-19T10:05:37;95620.59;;;7.50;54.25
12624;BME280;6377;42.836;23.998;2023-11-19T10:08:06;95608.81;;;7.12;54.58
12624;BME280;6377;42.836;23.998;2023-11-19T10:10:33;95635.06;;;7.46;54.36
12624;BME280;6377;42.836;23.998;2023-11-19T10:13:01;95717.91;;;7.76;54.49
12624;BME280;6377;42.836;23.998;2023-11-19T10:15:36;95702.97;;;7.93;55.32
12624;BME280;6377;42.836;23.998;2023-11-19T10:18:03;95595.88;;;7.27;54.82
12624;BME280;6377;42.836;23.998;2023-11-19T10:20:35;95537.09;;;7.02;54.93
12624;BME280;6377;42.836;23.998;2023-11-19T10:23:03;95642.53;;;7.67;54.46
12624;BME280;6377;42.836;23.998;2023-11-19T10:25:30;95700.19;;;8.02;55.88
12624;BME280;6377;42.836;23.998;2023-11-19T10:27:59;95704.50;;;8.19;54.83
12624;BME280;6377;42.836;23.998;2023-11-19T10:30:29;95699.13;;;8.53;56.16
12624;BME280;6377;42.836;23.998;2023-11-19T10:33:04;95718.38;;;8.78;53.87
12624;BME280;6377;42.836;23.998;2023-11-19T10:35:32;95578.56;;;8.07;54.21
12624;BME280;6377;42.836;23.998;2023-11-19T10:38:00;95684.25;;;8.84;52.33
12624;BME280;6377;42.836;23.998;2023-11-19T10:40:38;95678.97;;;8.84;51.96
12624;BME280;6377;42.836;23.998;2023-11-19T10:43:06;95675.50;;;9.00;51.57
12624;BME280;6377;42.836;23.998;2023-11-19T10:45:36;95655.56;;;8.97;51.96
12624;BME280;6377;42.836;23.998;2023-11-19T10:48:05;95677.81;;;8.95;52.42
12624;BME280;6377;42.836;23.998;2023-11-19T10:50:33;95687.56;;;8.94;52.32
12624;BME280;6377;42.836;23.998;2023-11-19T10:53:02;95651.00;;;8.43;51.82
12624;BME280;6377;42.836;23.998;2023-11-19T10:55:30;95587.25;;;7.99;52.14
12624;BME280;6377;42.836;23.998;2023-11-19T10:57:59;95629.44;;;8.56;52.44
12624;BME280;6377;42.836;23.998;2023-11-19T11:00:29;95645.94;;;9.21;51.18
12624;BME280;6377;42.836;23.998;2023-11-19T11:03:02;95651.56;;;9.48;50.22
12624;BME280;6377;42.836;23.998;2023-11-19T11:05:32;95661.94;;;9.58;49.53
12624;BME280;6377;42.836;23.998;2023-11-19T11:08:01;95675.22;;;9.34;50.25
12624;BME280;6377;42.836;23.998;2023-11-19T11:10:32;95652.16;;;9.28;51.13
12624;BME280;6377;42.836;23.998;2023-11-19T11:13:03;95669.81;;;9.97;50.50
12624;BME280;6377;42.836;23.998;2023-11-19T11:15:31;95660.91;;;10.81;48.71
12624;BME280;6377;42.836;23.998;2023-11-19T11:18:01;95643.25;;;11.25;47.63
12624;BME280;6377;42.836;23.998;2023-11-19T11:20:30;95555.66;;;11.05;47.02
12624;BME280;6377;42.836;23.998;2023-11-19T11:26:08;95653.09;;;11.16;46.59
12624;BME280;6377;42.836;23.998;2023-11-19T11:28:46;95644.84;;;10.67;47.11
12624;BME280;6377;42.836;23.998;2023-11-19T11:31:26;95651.31;;;9.97;47.90
12624;BME280;6377;42.836;23.998;2023-11-19T11:34:37;95647.59;;;9.52;49.83
12624;BME280;6377;42.836;23.998;2023-11-19T11:37:13;95658.66;;;9.09;50.09
12624;BME280;6377;42.836;23.998;2023-11-19T11:39:43;95655.56;;;8.97;50.77
12624;BME280;6377;42.836;23.998;2023-11-19T11:42:31;95654.56;;;9.07;51.65
12624;BME280;6377;42.836;23.998;2023-11-19T11:44:59;95649.69;;;9.26;50.88
12624;BME280;6377;42.836;23.998;2023-11-19T11:48:06;95649.66;;;9.34;51.08
12624;BME280;6377;42.836;23.998;2023-11-19T11:50:51;95649.84;;;9.33;50.47
12624;BME280;6377;42.836;23.998;2023-11-19T11:53:20;95641.91;;;9.33;51.01
12624;BME280;6377;42.836;23.998;2023-11-19T11:55:57;95651.13;;;9.37;51.13
12624;BME280;6377;42.836;23.998;2023-11-19T11:58:32;95653.19;;;9.11;50.35
12624;BME280;6377;42.836;23.998;2023-11-19T12:01:04;95632.31;;;8.93;50.87
12624;BME280;6377;42.836;23.998;2023-11-19T12:03:37;95592.31;;;8.73;50.80
12624;BME280;6377;42.836;23.998;2023-11-19T12:06:06;95611.28;;;8.77;51.45
12624;BME280;6377;42.836;23.998;2023-11-19T12:08:34;95485.72;;;7.97;50.64
12624;BME280;6377;42.836;23.998;2023-11-19T12:11:02;95633.25;;;9.08;51.38
12624;BME280;6377;42.836;23.998;2023-11-19T12:13:53;95628.66;;;9.02;51.63
12624;BME280;6377;42.836;23.998;2023-11-19T12:16:24;95639.75;;;8.97;51.86
12624;BME280;6377;42.836;23.998;2023-11-19T12:18:53;95630.31;;;9.03;51.78
12624;BME280;6377;42.836;23.998;2023-11-19T12:21:29;95603.09;;;9.02;51.30
12624;BME280;6377;42.836;23.998;2023-11-19T12:23:59;95570.34;;;8.89;51.10
12624;BME280;6377;42.836;23.998;2023-11-19T12:26:34;95611.78;;;9.19;51.81
12624;BME280;6377;42.836;23.998;2023-11-19T12:29:02;95538.75;;;8.73;51.32
12624;BME280;6377;42.836;23.998;2023-11-19T12:31:33;95529.31;;;8.39;50.82
12624;BME280;6377;42.836;23.998;2023-11-19T12:34:12;95569.06;;;8.77;51.23
12624;BME280;6377;42.836;23.998;2023-11-19T12:36:42;95587.34;;;8.86;51.93
12624;BME280;6377;42.836;23.998;2023-11-19T12:39:09;95549.00;;;8.68;51.46
12624;BME280;6377;42.836;23.998;2023-11-19T12:41:57;95589.28;;;8.92;51.41
12624;BME280;6377;42.836;23.998;2023-11-19T12:44:25;95578.81;;;8.60;52.32
12624;BME280;6377;42.836;23.998;2023-11-19T12:47:00;95559.78;;;8.42;52.78
12624;BME280;6377;42.836;23.998;2023-11-19T12:49:28;95463.19;;;7.86;52.42
12624;BME280;6377;42.836;23.998;2023-11-19T12:51:56;95583.16;;;8.37;52.03
12624;BME280;6377;42.836;23.998;2023-11-19T12:54:32;95579.88;;;8.19;52.44
12624;BME280;6377;42.836;23.998;2023-11-19T12:57:00;95586.59;;;8.13;53.60
12624;BME280;6377;42.836;23.998;2023-11-19T12:59:28;95379.66;;;6.91;53.00
12624;BME280;6377;42.836;23.998;2023-11-19T13:01:56;95546.94;;;7.90;53.03
12624;BME280;6377;42.836;23.998;2023-11-19T13:04:27;95580.50;;;8.05;53.34
12624;BME280;6377;42.836;23.998;2023-11-19T13:06:57;95550.09;;;7.86;54.14
12624;BME280;6377;42.836;23.998;2023-11-19T13:09:25;95467.00;;;7.59;53.15
12624;BME280;6377;42.836;23.998;2023-11-19T13:11:53;95583.16;;;8.37;53.63
12624;BME280;6377;42.836;23.998;2023-11-19T13:14:20;95576.09;;;8.29;53.26
12624;BME280;6377;42.836;23.998;2023-11-19T13:16:48;95578.72;;;8.37;52.86
12624;BME280;6377;42.836;23.998;2023-11-19T13:19:15;95403.19;;;7.17;52.81
12624;BME280;6377;42.836;23.998;2023-11-19T13:21:44;95502.84;;;7.76;53.24
12624;BME280;6377;42.836;23.998;2023-11-19T13:24:15;95436.56;;;7.24;52.89
12624;BME280;6377;42.836;23.998;2023-11-19T13:26:42;95567.81;;;8.16;53.66
12624;BME280;6377;42.836;23.998;2023-11-19T13:29:09;95590.72;;;8.08;52.87
12624;BME280;6377;42.836;23.998;2023-11-19T13:31:37;95525.91;;;7.74;52.80
12624;BME280;6377;42.836;23.998;2023-11-19T13:34:04;95576.88;;;8.14;52.63
12624;BME280;6377;42.836;23.998;2023-11-19T13:36:33;95583.81;;;8.23;52.86
12624;BME280;6377;42.836;23.998;2023-11-19T13:39:00;95521.63;;;7.89;53.24
12624;BME280;6377;42.836;23.998;2023-11-19T13:41:28;95419.47;;;7.28;52.99
12624;BME280;6377;42.836;23.998;2023-11-19T13:43:55;95564.88;;;8.19;53.44
12624;BME280;6377;42.836;23.998;2023-11-19T13:46:23;95548.28;;;7.95;52.96
12624;BME280;6377;42.836;23.998;2023-11-19T13:48:50;95571.63;;;8.14;53.53